Tuesday, September 27, 2016, 11:26 AM EDT

KESN, Easton / Newman Field

Location: Easton, MD, United States Lat: 38.8
Local Time: 11:26 AM EDT (15:26 GMT) Lon: -76.067
Time Zone: US/Eastern Elev: 72 ft

Show me the last for .
Show Decoded

2016-09-27 10:50 METAR KESN 271450Z 00000KT 10SM OVC044 20/18 A3002 =
2016-09-27 09:50 METAR KESN 271350Z 00000KT 10SM -RA OVC044 20/19 A3001 =
2016-09-27 08:50 METAR KESN 271250Z 00000KT 10SM OVC044 20/19 A3001 =
2016-09-27 07:45 METAR KESN 271145Z 00000KT 5SM BR OVC044 20/19 A2999 =
2016-09-27 06:45 METAR KESN 271045Z 00000KT 7SM -RA BKN009 BKN013 BKN024 20/19 A2998 =
2016-09-27 05:45 METAR KESN 270945Z 30005KT 5SM RA BKN006 OVC014 20/19 A2998 =
2016-09-26 21:50 METAR KESN 270150Z 17006KT 10SM OVC040 20/14 A3007 =
2016-09-26 20:50 METAR KESN 270050Z 15005KT 10SM OVC042 20/13 A3008 =
2016-09-26 19:50 METAR KESN 262350Z 17003KT 10SM OVC042 21/12 A3008 =
2016-09-26 18:50 METAR KESN 262250Z 17007KT 10SM OVC042 22/11 A3008 =
2016-09-26 17:50 METAR KESN 262150Z 19007KT 10SM OVC042 22/13 A3007 =
2016-09-26 16:50 METAR KESN 262050Z 22006KT 10SM OVC040 22/13 A3008 =
2016-09-26 15:50 METAR KESN 261950Z 20006KT 10SM OVC042 22/12 A3010 =
2016-09-26 14:55 METAR KESN 261855Z 20006KT 10SM OVC044 22/12 A3012 =
2016-09-26 13:50 METAR KESN 261750Z 20008KT 10SM OVC044 22/11 A3015 =
2016-09-26 12:50 METAR KESN 261650Z 19007KT 10SM OVC038 22/11 A3016 =
2016-09-26 11:50 METAR KESN 261550Z 20009KT 10SM OVC038 22/10 A3018 =

Support USWX by starting your Amazon purchase here.